Terminal Aerodrome Forecast
Issued by NWS Mt. Holly, NJ

Home | Current Version | Previous Version | Text Only | Print | Product List | Glossary On
Versions: 1 2 3 4 5 6 7 8 9 10 11 12 13
000
FTAK31 PANC 242332
TAFABE
TAF
PABE 242332Z 2500/2524 26005KT P6SM SCT040 SCT100
     FM250200 VRB05KT P6SM VCSH SCT040 BKN060
     FM250600 12008KT P6SM SCT070
     FM251400 07006KT P6SM VCFG FEW002
     FM251800 08011KT P6SM SCT200=

USA.gov is the U.S. government's official web portal to all federal, state and local government web resources and services.